sensor_id;sensor_type;location;lat;lon;timestamp;pressure;altitude;pressure_sealevel;temperature;humidity
48964;BME280;34776;48.180;16.420;2022-08-03T00:01:36;99984.31;;;21.08;69.06
48964;BME280;34776;48.180;16.420;2022-08-03T00:04:04;99980.75;;;21.07;69.36
48964;BME280;34776;48.180;16.420;2022-08-03T00:06:30;99979.19;;;21.05;69.26
48964;BME280;34776;48.180;16.420;2022-08-03T00:08:56;99983.19;;;21.01;69.50
48964;BME280;34776;48.180;16.420;2022-08-03T00:11:21;99988.00;;;20.97;69.70
48964;BME280;34776;48.180;16.420;2022-08-03T00:13:47;99981.75;;;20.97;69.59
48964;BME280;34776;48.180;16.420;2022-08-03T00:16:13;99980.63;;;20.90;70.08
48964;BME280;34776;48.180;16.420;2022-08-03T00:18:38;99987.56;;;20.82;70.44
48964;BME280;34776;48.180;16.420;2022-08-03T00:21:04;99988.84;;;20.78;70.73
48964;BME280;34776;48.180;16.420;2022-08-03T00:23:30;99978.59;;;20.72;71.31
48964;BME280;34776;48.180;16.420;2022-08-03T00:25:55;99977.16;;;20.68;71.37
48964;BME280;34776;48.180;16.420;2022-08-03T00:28:21;99970.09;;;20.67;71.22
48964;BME280;34776;48.180;16.420;2022-08-03T00:30:46;99973.91;;;20.64;71.34
48964;BME280;34776;48.180;16.420;2022-08-03T00:33:12;99968.66;;;20.63;71.50
48964;BME280;34776;48.180;16.420;2022-08-03T00:35:37;99974.06;;;20.63;71.60
48964;BME280;34776;48.180;16.420;2022-08-03T00:38:03;99974.06;;;20.63;71.54
48964;BME280;34776;48.180;16.420;2022-08-03T00:40:28;99976.88;;;20.61;71.39
48964;BME280;34776;48.180;16.420;2022-08-03T00:45:24;99970.34;;;20.64;71.48
48964;BME280;34776;48.180;16.420;2022-08-03T00:47:51;99966.22;;;20.60;71.75
48964;BME280;34776;48.180;16.420;2022-08-03T00:50:18;99968.19;;;20.58;71.74
48964;BME280;34776;48.180;16.420;2022-08-03T00:52:44;99969.06;;;20.58;71.46
48964;BME280;34776;48.180;16.420;2022-08-03T00:55:11;99968.06;;;20.59;71.22
48964;BME280;34776;48.180;16.420;2022-08-03T00:57:37;99974.31;;;20.60;70.84
48964;BME280;34776;48.180;16.420;2022-08-03T01:00:07;99964.94;;;20.64;70.34
48964;BME280;34776;48.180;16.420;2022-08-03T01:02:34;99973.63;;;20.67;70.12
48964;BME280;34776;48.180;16.420;2022-08-03T01:04:59;99962.69;;;20.69;69.99
48964;BME280;34776;48.180;16.420;2022-08-03T01:10:36;99970.66;;;20.71;69.28
48964;BME280;34776;48.180;16.420;2022-08-03T01:13:20;99966.38;;;20.68;69.20
48964;BME280;34776;48.180;16.420;2022-08-03T01:15:58;99970.09;;;20.67;68.85
48964;BME280;34776;48.180;16.420;2022-08-03T01:18:34;99971.78;;;20.68;68.86
48964;BME280;34776;48.180;16.420;2022-08-03T01:21:03;99971.22;;;20.74;68.34
48964;BME280;34776;48.180;16.420;2022-08-03T01:23:48;99972.34;;;20.72;68.13
48964;BME280;34776;48.180;16.420;2022-08-03T01:26:45;99974.63;;;20.66;68.84
48964;BME280;34776;48.180;16.420;2022-08-03T01:29:35;99972.31;;;20.62;69.26
48964;BME280;34776;48.180;16.420;2022-08-03T01:32:14;99976.84;;;20.52;69.59
48964;BME280;34776;48.180;16.420;2022-08-03T01:34:46;99965.34;;;20.50;69.81
48964;BME280;34776;48.180;16.420;2022-08-03T01:37:15;99972.25;;;20.42;69.74
48964;BME280;34776;48.180;16.420;2022-08-03T01:39:43;99967.16;;;20.39;70.26
48964;BME280;34776;48.180;16.420;2022-08-03T01:42:10;99971.38;;;20.32;70.48
48964;BME280;34776;48.180;16.420;2022-08-03T01:44:37;99964.53;;;20.28;70.82
48964;BME280;34776;48.180;16.420;2022-08-03T01:47:05;99965.09;;;20.22;70.86
48964;BME280;34776;48.180;16.420;2022-08-03T01:49:36;99965.63;;;20.16;71.52
48964;BME280;34776;48.180;16.420;2022-08-03T01:52:04;99965.22;;;20.11;72.19
48964;BME280;34776;48.180;16.420;2022-08-03T01:54:35;99968.19;;;20.07;72.21
48964;BME280;34776;48.180;16.420;2022-08-03T01:57:02;99968.91;;;20.10;72.07
48964;BME280;34776;48.180;16.420;2022-08-03T01:59:29;99968.19;;;20.07;71.72
48964;BME280;34776;48.180;16.420;2022-08-03T02:01:58;99967.59;;;20.04;72.21
48964;BME280;34776;48.180;16.420;2022-08-03T02:04:24;99969.84;;;19.99;72.32
48964;BME280;34776;48.180;16.420;2022-08-03T02:06:52;99962.63;;;19.99;72.58
48964;BME280;34776;48.180;16.420;2022-08-03T02:09:19;99958.75;;;19.92;72.88
48964;BME280;34776;48.180;16.420;2022-08-03T02:11:46;99964.41;;;19.89;73.40
48964;BME280;34776;48.180;16.420;2022-08-03T02:14:13;99959.28;;;19.86;72.84
48964;BME280;34776;48.180;16.420;2022-08-03T02:16:42;99956.03;;;19.92;72.67
48964;BME280;34776;48.180;16.420;2022-08-03T02:19:10;99963.28;;;19.92;72.79
48964;BME280;34776;48.180;16.420;2022-08-03T02:21:36;99958.50;;;19.95;72.67
48964;BME280;34776;48.180;16.420;2022-08-03T02:24:03;99962.16;;;19.94;72.79
48964;BME280;34776;48.180;16.420;2022-08-03T02:26:29;99963.41;;;19.90;73.23
48964;BME280;34776;48.180;16.420;2022-08-03T02:28:58;99955.59;;;19.87;73.43
48964;BME280;34776;48.180;16.420;2022-08-03T02:31:28;99966.09;;;19.90;72.89
48964;BME280;34776;48.180;16.420;2022-08-03T02:34:00;99958.50;;;19.95;72.44
48964;BME280;34776;48.180;16.420;2022-08-03T02:36:29;99956.63;;;19.96;72.70
48964;BME280;34776;48.180;16.420;2022-08-03T02:38:58;99963.56;;;19.89;73.26
48964;BME280;34776;48.180;16.420;2022-08-03T02:41:37;99964.22;;;19.81;73.50
48964;BME280;34776;48.180;16.420;2022-08-03T02:44:07;99959.81;;;19.80;72.94
48964;BME280;34776;48.180;16.420;2022-08-03T02:46:37;99957.31;;;19.88;72.58
48964;BME280;34776;48.180;16.420;2022-08-03T02:49:05;99954.47;;;19.90;72.54
48964;BME280;34776;48.180;16.420;2022-08-03T02:51:33;99959.28;;;19.86;72.41
48964;BME280;34776;48.180;16.420;2022-08-03T02:54:01;99957.84;;;19.82;72.63
48964;BME280;34776;48.180;16.420;2022-08-03T02:56:27;99965.81;;;19.83;72.57
48964;BME280;34776;48.180;16.420;2022-08-03T02:58:55;99959.03;;;19.89;72.46
48964;BME280;34776;48.180;16.420;2022-08-03T03:01:21;99966.09;;;19.90;72.70
48964;BME280;34776;48.180;16.420;2022-08-03T03:03:49;99961.56;;;19.91;72.36
48964;BME280;34776;48.180;16.420;2022-08-03T03:06:17;99973.47;;;19.88;72.93
48964;BME280;34776;48.180;16.420;2022-08-03T03:08:44;99970.34;;;19.83;73.14
48964;BME280;34776;48.180;16.420;2022-08-03T03:11:12;99974.28;;;19.79;73.90
48964;BME280;34776;48.180;16.420;2022-08-03T03:13:38;99969.44;;;19.73;74.18
48964;BME280;34776;48.180;16.420;2022-08-03T03:16:05;99981.72;;;19.65;74.48
48964;BME280;34776;48.180;16.420;2022-08-03T03:18:32;99981.38;;;19.59;74.71
48964;BME280;34776;48.180;16.420;2022-08-03T03:20:59;99984.47;;;19.54;75.16
48964;BME280;34776;48.180;16.420;2022-08-03T03:23:26;99984.03;;;19.49;75.30
48964;BME280;34776;48.180;16.420;2022-08-03T03:25:54;99986.00;;;19.47;75.48
48964;BME280;34776;48.180;16.420;2022-08-03T03:28:22;99995.06;;;19.46;75.60
48964;BME280;34776;48.180;16.420;2022-08-03T03:30:48;99987.97;;;19.45;75.45
48964;BME280;34776;48.180;16.420;2022-08-03T03:33:14;99989.09;;;19.42;75.65
48964;BME280;34776;48.180;16.420;2022-08-03T03:35:40;99974.03;;;19.40;75.82
48964;BME280;34776;48.180;16.420;2022-08-03T03:38:07;99985.06;;;19.37;76.20
48964;BME280;34776;48.180;16.420;2022-08-03T03:40:37;99989.00;;;19.33;76.49
48964;BME280;34776;48.180;16.420;2022-08-03T03:43:07;99985.59;;;19.31;76.84
48964;BME280;34776;48.180;16.420;2022-08-03T03:45:33;99991.97;;;19.30;76.53
48964;BME280;34776;48.180;16.420;2022-08-03T03:48:00;99990.72;;;19.34;76.42
48964;BME280;34776;48.180;16.420;2022-08-03T03:50:27;99997.53;;;19.38;76.47
48964;BME280;34776;48.180;16.420;2022-08-03T03:52:52;100002.09;;;19.37;76.35
48964;BME280;34776;48.180;16.420;2022-08-03T03:55:18;100000.00;;;19.41;76.38
48964;BME280;34776;48.180;16.420;2022-08-03T03:57:43;99997.03;;;19.44;76.09
48964;BME280;34776;48.180;16.420;2022-08-03T04:00:11;99995.34;;;19.43;76.22
48964;BME280;34776;48.180;16.420;2022-08-03T04:02:37;100002.69;;;19.41;76.61
48964;BME280;34776;48.180;16.420;2022-08-03T04:05:03;100006.34;;;19.40;76.43
48964;BME280;34776;48.180;16.420;2022-08-03T04:08:06;100010.28;;;19.36;76.49
48964;BME280;34776;48.180;16.420;2022-08-03T04:13:49;100010.38;;;19.45;76.01
48964;BME280;34776;48.180;16.420;2022-08-03T04:16:18;100014.41;;;19.51;76.04
48964;BME280;34776;48.180;16.420;2022-08-03T04:18:48;100009.97;;;19.50;76.10
48964;BME280;34776;48.180;16.420;2022-08-03T04:21:16;100017.81;;;19.53;76.30
48964;BME280;34776;48.180;16.420;2022-08-03T04:23:45;100020.25;;;19.56;76.37
48964;BME280;34776;48.180;16.420;2022-08-03T04:26:14;100020.97;;;19.58;76.49
48964;BME280;34776;48.180;16.420;2022-08-03T04:28:42;100025.09;;;19.62;76.73
48964;BME280;34776;48.180;16.420;2022-08-03T04:31:11;100023.84;;;19.66;76.53
48964;BME280;34776;48.180;16.420;2022-08-03T04:33:38;100026.28;;;19.70;76.47
48964;BME280;34776;48.180;16.420;2022-08-03T04:36:06;100030.44;;;19.74;76.54
48964;BME280;34776;48.180;16.420;2022-08-03T04:38:40;100024.53;;;19.80;76.17
48964;BME280;34776;48.180;16.420;2022-08-03T04:41:09;100030.41;;;19.85;76.13
48964;BME280;34776;48.180;16.420;2022-08-03T04:43:35;100032.81;;;19.88;75.92
48964;BME280;34776;48.180;16.420;2022-08-03T04:46:05;100032.03;;;19.97;75.91
48964;BME280;34776;48.180;16.420;2022-08-03T04:48:33;100027.34;;;19.99;76.21
48964;BME280;34776;48.180;16.420;2022-08-03T04:50:59;100039.31;;;20.06;75.96
48964;BME280;34776;48.180;16.420;2022-08-03T04:53:25;100032.38;;;20.14;75.89
48964;BME280;34776;48.180;16.420;2022-08-03T04:55:50;100029.28;;;20.18;75.72
48964;BME280;34776;48.180;16.420;2022-08-03T04:58:15;100028.88;;;20.23;75.15
48964;BME280;34776;48.180;16.420;2022-08-03T05:00:41;100028.59;;;20.26;74.83
48964;BME280;34776;48.180;16.420;2022-08-03T05:03:07;100031.03;;;20.29;74.74
48964;BME280;34776;48.180;16.420;2022-08-03T05:05:32;100030.50;;;20.35;74.76
48964;BME280;34776;48.180;16.420;2022-08-03T05:07:58;100030.38;;;20.46;74.31
48964;BME280;34776;48.180;16.420;2022-08-03T05:10:23;100037.50;;;20.57;74.03
48964;BME280;34776;48.180;16.420;2022-08-03T05:12:48;100044.97;;;20.65;73.42
48964;BME280;34776;48.180;16.420;2022-08-03T05:15:15;100041.13;;;20.67;73.27
48964;BME280;34776;48.180;16.420;2022-08-03T05:17:41;100041.41;;;20.74;73.16
48964;BME280;34776;48.180;16.420;2022-08-03T05:20:07;100039.19;;;20.79;73.14
48964;BME280;34776;48.180;16.420;2022-08-03T05:22:33;100034.19;;;20.84;73.01
48964;BME280;34776;48.180;16.420;2022-08-03T05:24:59;100038.91;;;21.02;71.90
48964;BME280;34776;48.180;16.420;2022-08-03T05:27:25;100044.06;;;21.15;71.24
48964;BME280;34776;48.180;16.420;2022-08-03T05:29:50;100044.06;;;21.24;70.64
48964;BME280;34776;48.180;16.420;2022-08-03T05:32:16;100044.63;;;21.38;70.53
48964;BME280;34776;48.180;16.420;2022-08-03T05:34:42;100043.81;;;21.47;69.66
48964;BME280;34776;48.180;16.420;2022-08-03T05:37:08;100038.94;;;21.60;69.47
48964;BME280;34776;48.180;16.420;2022-08-03T05:39:34;100046.03;;;21.71;69.23
48964;BME280;34776;48.180;16.420;2022-08-03T05:42:00;100053.00;;;21.83;68.84
48964;BME280;34776;48.180;16.420;2022-08-03T05:47:14;100053.09;;;22.01;67.58
48964;BME280;34776;48.180;16.420;2022-08-03T05:49:39;100045.13;;;22.09;67.29
48964;BME280;34776;48.180;16.420;2022-08-03T05:52:05;100045.22;;;22.18;66.42
48964;BME280;34776;48.180;16.420;2022-08-03T05:54:31;100043.38;;;22.28;66.55
48964;BME280;34776;48.180;16.420;2022-08-03T05:56:56;100051.19;;;22.31;66.63
48964;BME280;34776;48.180;16.420;2022-08-03T05:59:21;100051.16;;;22.41;65.92
48964;BME280;34776;48.180;16.420;2022-08-03T06:01:47;100045.84;;;22.49;65.54
48964;BME280;34776;48.180;16.420;2022-08-03T06:04:12;100047.66;;;22.58;65.10
48964;BME280;34776;48.180;16.420;2022-08-03T06:06:38;100051.00;;;22.70;64.40
48964;BME280;34776;48.180;16.420;2022-08-03T06:09:03;100054.50;;;22.80;63.87
48964;BME280;34776;48.180;16.420;2022-08-03T06:11:29;100054.28;;;22.92;63.76
48964;BME280;34776;48.180;16.420;2022-08-03T06:13:54;100047.00;;;22.92;63.56
48964;BME280;34776;48.180;16.420;2022-08-03T06:16:19;100041.13;;;22.97;63.63
48964;BME280;34776;48.180;16.420;2022-08-03T06:18:45;100049.09;;;23.08;62.95
48964;BME280;34776;48.180;16.420;2022-08-03T06:21:10;100046.84;;;23.21;63.04
48964;BME280;34776;48.180;16.420;2022-08-03T06:23:36;100056.13;;;23.37;62.18
48964;BME280;34776;48.180;16.420;2022-08-03T06:26:01;100049.22;;;23.60;61.22
48964;BME280;34776;48.180;16.420;2022-08-03T06:28:27;100053.91;;;23.94;60.29
48964;BME280;34776;48.180;16.420;2022-08-03T06:30:52;100046.59;;;24.98;57.95
48964;BME280;34776;48.180;16.420;2022-08-03T06:33:18;100050.28;;;28.37;51.08
48964;BME280;34776;48.180;16.420;2022-08-03T06:35:44;100042.81;;;31.29;44.03
48964;BME280;34776;48.180;16.420;2022-08-03T06:38:09;100044.13;;;33.62;40.33
48964;BME280;34776;48.180;16.420;2022-08-03T06:40:35;100048.41;;;34.27;39.52
48964;BME280;34776;48.180;16.420;2022-08-03T06:43:05;100051.22;;;35.43;37.97
48964;BME280;34776;48.180;16.420;2022-08-03T06:45:31;100051.78;;;36.34;34.96
48964;BME280;34776;48.180;16.420;2022-08-03T06:48:10;100049.22;;;37.88;30.31
48964;BME280;34776;48.180;16.420;2022-08-03T06:50:38;100053.53;;;37.04;32.60
48964;BME280;34776;48.180;16.420;2022-08-03T06:53:04;100054.59;;;37.61;32.14
48964;BME280;34776;48.180;16.420;2022-08-03T06:55:30;100050.31;;;38.43;30.14
48964;BME280;34776;48.180;16.420;2022-08-03T06:57:56;100051.13;;;39.58;29.16
48964;BME280;34776;48.180;16.420;2022-08-03T07:00:23;100053.16;;;40.48;27.90
48964;BME280;34776;48.180;16.420;2022-08-03T07:02:49;100052.56;;;40.41;27.77
48964;BME280;34776;48.180;16.420;2022-08-03T07:05:15;100051.81;;;41.40;27.13
48964;BME280;34776;48.180;16.420;2022-08-03T07:07:41;100054.03;;;41.99;25.00
48964;BME280;34776;48.180;16.420;2022-08-03T07:10:07;100057.50;;;42.66;24.40
48964;BME280;34776;48.180;16.420;2022-08-03T07:12:34;100057.81;;;43.59;23.61
48964;BME280;34776;48.180;16.420;2022-08-03T07:15:01;100059.41;;;44.29;22.49
48964;BME280;34776;48.180;16.420;2022-08-03T07:17:34;100055.59;;;43.56;21.67
48964;BME280;34776;48.180;16.420;2022-08-03T07:20:02;100048.63;;;44.41;23.03
48964;BME280;34776;48.180;16.420;2022-08-03T07:22:28;100051.53;;;45.55;21.11
48964;BME280;34776;48.180;16.420;2022-08-03T07:24:53;100055.19;;;45.74;20.65
48964;BME280;34776;48.180;16.420;2022-08-03T07:27:19;100052.84;;;45.44;20.35
48964;BME280;34776;48.180;16.420;2022-08-03T07:29:44;100049.75;;;45.07;20.83
48964;BME280;34776;48.180;16.420;2022-08-03T07:32:10;100054.44;;;45.69;20.98
48964;BME280;34776;48.180;16.420;2022-08-03T07:34:35;100045.78;;;46.26;20.39
48964;BME280;34776;48.180;16.420;2022-08-03T07:37:00;100050.69;;;45.73;20.46
48964;BME280;34776;48.180;16.420;2022-08-03T07:39:26;100045.19;;;45.68;20.62
48964;BME280;34776;48.180;16.420;2022-08-03T07:41:51;100034.56;;;46.53;19.71
48964;BME280;34776;48.180;16.420;2022-08-03T07:44:17;100038.88;;;47.15;18.15
48964;BME280;34776;48.180;16.420;2022-08-03T07:46:43;100048.13;;;47.02;18.56
48964;BME280;34776;48.180;16.420;2022-08-03T07:49:09;100036.31;;;46.77;17.48
48964;BME280;34776;48.180;16.420;2022-08-03T07:51:35;100030.41;;;46.51;18.05
48964;BME280;34776;48.180;16.420;2022-08-03T07:54:00;100033.94;;;47.21;16.65
48964;BME280;34776;48.180;16.420;2022-08-03T07:56:26;100039.44;;;47.48;16.11
48964;BME280;34776;48.180;16.420;2022-08-03T07:58:52;100039.75;;;47.24;16.74
48964;BME280;34776;48.180;16.420;2022-08-03T08:01:18;100033.09;;;47.20;16.57
48964;BME280;34776;48.180;16.420;2022-08-03T08:03:45;100042.19;;;47.40;16.16
48964;BME280;34776;48.180;16.420;2022-08-03T08:06:10;100033.84;;;47.80;16.29
48964;BME280;34776;48.180;16.420;2022-08-03T08:08:37;100040.50;;;47.84;16.10
48964;BME280;34776;48.180;16.420;2022-08-03T08:11:04;100036.25;;;47.64;15.60
48964;BME280;34776;48.180;16.420;2022-08-03T08:13:29;100035.53;;;48.12;15.69
48964;BME280;34776;48.180;16.420;2022-08-03T08:15:55;100044.31;;;48.59;14.66
48964;BME280;34776;48.180;16.420;2022-08-03T08:18:21;100036.81;;;48.37;14.82
48964;BME280;34776;48.180;16.420;2022-08-03T08:20:46;100036.66;;;48.42;14.70
48964;BME280;34776;48.180;16.420;2022-08-03T08:23:12;100028.75;;;48.22;14.63
48964;BME280;34776;48.180;16.420;2022-08-03T08:25:37;100031.75;;;48.16;14.63
48964;BME280;34776;48.180;16.420;2022-08-03T08:28:03;100026.19;;;48.43;14.36
48964;BME280;34776;48.180;16.420;2022-08-03T08:30:30;100035.72;;;47.39;15.41
48964;BME280;34776;48.180;16.420;2022-08-03T08:32:56;100038.75;;;47.65;14.52
48964;BME280;34776;48.180;16.420;2022-08-03T08:35:22;100024.16;;;48.26;14.46
48964;BME280;34776;48.180;16.420;2022-08-03T08:37:47;100022.66;;;48.77;14.04
48964;BME280;34776;48.180;16.420;2022-08-03T08:40:13;100034.09;;;48.23;14.11
48964;BME280;34776;48.180;16.420;2022-08-03T08:42:39;100032.47;;;47.23;15.07
48964;BME280;34776;48.180;16.420;2022-08-03T08:45:06;100028.53;;;46.46;14.97
48964;BME280;34776;48.180;16.420;2022-08-03T08:47:36;100031.56;;;45.05;15.93
48964;BME280;34776;48.180;16.420;2022-08-03T08:50:02;100023.25;;;42.35;18.83
48964;BME280;34776;48.180;16.420;2022-08-03T08:52:29;100027.63;;;39.82;20.96
48964;BME280;34776;48.180;16.420;2022-08-03T08:54:59;100025.28;;;37.82;22.45
48964;BME280;34776;48.180;16.420;2022-08-03T08:57:30;100027.25;;;35.79;24.42
48964;BME280;34776;48.180;16.420;2022-08-03T08:59:57;100027.81;;;34.66;25.95
48964;BME280;34776;48.180;16.420;2022-08-03T09:02:24;100022.34;;;34.23;26.17
48964;BME280;34776;48.180;16.420;2022-08-03T09:04:50;100027.84;;;33.54;27.38
48964;BME280;34776;48.180;16.420;2022-08-03T09:07:16;100020.09;;;33.06;27.69
48964;BME280;34776;48.180;16.420;2022-08-03T09:09:42;100030.81;;;32.75;28.25
48964;BME280;34776;48.180;16.420;2022-08-03T09:12:07;100034.34;;;32.31;29.04
48964;BME280;34776;48.180;16.420;2022-08-03T09:14:33;100027.19;;;32.16;28.72
48964;BME280;34776;48.180;16.420;2022-08-03T09:17:01;100018.31;;;32.14;28.73
48964;BME280;34776;48.180;16.420;2022-08-03T09:19:28;100016.16;;;32.23;28.80
48964;BME280;34776;48.180;16.420;2022-08-03T09:24:32;100027.19;;;32.16;29.06
48964;BME280;34776;48.180;16.420;2022-08-03T09:26:57;100018.78;;;32.05;29.03
48964;BME280;34776;48.180;16.420;2022-08-03T09:29:23;100011.59;;;31.84;28.67
48964;BME280;34776;48.180;16.420;2022-08-03T09:31:59;100018.34;;;31.74;28.88
48964;BME280;34776;48.180;16.420;2022-08-03T09:34:25;100011.16;;;31.73;29.15
48964;BME280;34776;48.180;16.420;2022-08-03T09:36:53;100003.13;;;31.79;29.43
48964;BME280;34776;48.180;16.420;2022-08-03T09:39:25;100006.09;;;31.64;29.40
48964;BME280;34776;48.180;16.420;2022-08-03T09:42:12;99999.75;;;31.63;28.93
48964;BME280;34776;48.180;16.420;2022-08-03T09:44:49;99999.53;;;31.78;28.95
48964;BME280;34776;48.180;16.420;2022-08-03T09:47:26;100005.66;;;31.73;29.78
48964;BME280;34776;48.180;16.420;2022-08-03T09:50:00;100001.22;;;31.79;29.14
48964;BME280;34776;48.180;16.420;2022-08-03T09:52:34;99988.53;;;31.85;29.34
48964;BME280;34776;48.180;16.420;2022-08-03T09:55:00;99992.53;;;31.89;29.22
48964;BME280;34776;48.180;16.420;2022-08-03T09:57:27;99989.16;;;32.00;28.53
48964;BME280;34776;48.180;16.420;2022-08-03T10:00:05;99991.69;;;32.15;27.93
48964;BME280;34776;48.180;16.420;2022-08-03T10:02:31;99989.41;;;32.50;28.01
48964;BME280;34776;48.180;16.420;2022-08-03T10:04:57;99986.84;;;32.69;28.04
48964;BME280;34776;48.180;16.420;2022-08-03T10:07:23;99986.66;;;32.64;27.43
48964;BME280;34776;48.180;16.420;2022-08-03T10:12:21;99985.44;;;32.40;28.13
48964;BME280;34776;48.180;16.420;2022-08-03T10:14:46;99983.53;;;32.40;28.17
48964;BME280;34776;48.180;16.420;2022-08-03T10:17:12;99983.16;;;32.36;28.35
48964;BME280;34776;48.180;16.420;2022-08-03T10:19:39;99972.16;;;32.36;28.32
48964;BME280;34776;48.180;16.420;2022-08-03T10:22:26;99965.28;;;32.52;28.16
48964;BME280;34776;48.180;16.420;2022-08-03T10:24:55;99968.22;;;32.64;28.11
48964;BME280;34776;48.180;16.420;2022-08-03T10:27:22;99964.03;;;32.62;28.07
48964;BME280;34776;48.180;16.420;2022-08-03T10:29:53;99971.66;;;32.46;28.35
48964;BME280;34776;48.180;16.420;2022-08-03T10:32:40;99967.47;;;32.37;27.92
48964;BME280;34776;48.180;16.420;2022-08-03T10:35:10;99960.59;;;32.66;28.05
48964;BME280;34776;48.180;16.420;2022-08-03T10:37:40;99956.34;;;32.70;28.04
48964;BME280;34776;48.180;16.420;2022-08-03T10:40:09;99952.94;;;32.75;28.04
48964;BME280;34776;48.180;16.420;2022-08-03T10:42:37;99958.81;;;32.85;28.44
48964;BME280;34776;48.180;16.420;2022-08-03T10:45:05;99957.91;;;32.91;27.75
48964;BME280;34776;48.180;16.420;2022-08-03T10:47:33;99950.72;;;32.90;27.55
48964;BME280;34776;48.180;16.420;2022-08-03T10:53:39;99947.44;;;32.75;27.10
48964;BME280;34776;48.180;16.420;2022-08-03T11:02:16;99943.75;;;32.88;26.32
48964;BME280;34776;48.180;16.420;2022-08-03T11:04:42;99945.56;;;33.01;25.72
48964;BME280;34776;48.180;16.420;2022-08-03T11:07:20;99932.47;;;32.96;24.97
48964;BME280;34776;48.180;16.420;2022-08-03T11:09:54;99932.88;;;33.00;25.59
48964;BME280;34776;48.180;16.420;2022-08-03T11:12:27;99930.50;;;33.10;25.34
48964;BME280;34776;48.180;16.420;2022-08-03T11:14:54;99940.34;;;33.24;25.23
48964;BME280;34776;48.180;16.420;2022-08-03T11:17:20;99933.88;;;33.37;25.49
48964;BME280;34776;48.180;16.420;2022-08-03T11:19:48;99942.09;;;33.44;25.19
48964;BME280;34776;48.180;16.420;2022-08-03T11:22:14;99935.69;;;33.50;25.39
48964;BME280;34776;48.180;16.420;2022-08-03T11:30:03;99929.75;;;33.71;24.92
48964;BME280;34776;48.180;16.420;2022-08-03T11:35:09;99931.63;;;33.78;24.00
48964;BME280;34776;48.180;16.420;2022-08-03T11:37:36;99925.47;;;33.75;24.41
48964;BME280;34776;48.180;16.420;2022-08-03T11:40:48;99923.66;;;33.88;23.66
48964;BME280;34776;48.180;16.420;2022-08-03T11:51:00;99921.41;;;33.78;23.55
48964;BME280;34776;48.180;16.420;2022-08-03T11:53:26;99917.03;;;33.70;24.21
48964;BME280;34776;48.180;16.420;2022-08-03T11:55:52;99912.03;;;34.04;22.72
48964;BME280;34776;48.180;16.420;2022-08-03T11:58:22;99901.69;;;34.18;22.60
48964;BME280;34776;48.180;16.420;2022-08-03T12:00:49;99907.09;;;34.25;22.79
48964;BME280;34776;48.180;16.420;2022-08-03T12:03:19;99907.09;;;34.25;22.71
48964;BME280;34776;48.180;16.420;2022-08-03T12:05:47;99899.41;;;34.15;22.54
48964;BME280;34776;48.180;16.420;2022-08-03T12:08:14;99909.88;;;34.06;22.68
48964;BME280;34776;48.180;16.420;2022-08-03T12:10:46;99900.22;;;34.34;22.07
48964;BME280;34776;48.180;16.420;2022-08-03T12:13:11;99905.81;;;34.57;21.62
48964;BME280;34776;48.180;16.420;2022-08-03T12:15:37;99900.78;;;34.54;21.69
48964;BME280;34776;48.180;16.420;2022-08-03T12:18:12;99897.97;;;34.06;21.35
48964;BME280;34776;48.180;16.420;2022-08-03T12:20:38;99898.97;;;34.11;22.35
48964;BME280;34776;48.180;16.420;2022-08-03T12:23:05;99897.88;;;34.19;21.97
48964;BME280;34776;48.180;16.420;2022-08-03T12:25:32;99895.16;;;34.31;21.81
48964;BME280;34776;48.180;16.420;2022-08-03T12:28:28;99898.22;;;34.23;21.22
48964;BME280;34776;48.180;16.420;2022-08-03T12:30:53;99882.59;;;34.16;21.65
48964;BME280;34776;48.180;16.420;2022-08-03T12:33:25;99877.00;;;34.53;21.63
48964;BME280;34776;48.180;16.420;2022-08-03T12:36:06;99881.28;;;34.68;21.23
48964;BME280;34776;48.180;16.420;2022-08-03T12:38:34;99876.66;;;34.80;21.62
48964;BME280;34776;48.180;16.420;2022-08-03T12:41:03;99884.69;;;34.51;21.98
48964;BME280;34776;48.180;16.420;2022-08-03T12:43:30;99871.94;;;34.69;21.94
48964;BME280;34776;48.180;16.420;2022-08-03T12:46:12;99869.03;;;34.64;21.59
48964;BME280;34776;48.180;16.420;2022-08-03T12:48:57;99868.81;;;34.65;21.32
48964;BME280;34776;48.180;16.420;2022-08-03T12:51:25;99880.75;;;34.89;21.45
48964;BME280;34776;48.180;16.420;2022-08-03T12:53:55;99866.09;;;35.01;21.03
48964;BME280;34776;48.180;16.420;2022-08-03T12:56:21;99857.78;;;34.65;20.94
48964;BME280;34776;48.180;16.420;2022-08-03T12:58:47;99864.97;;;34.36;20.99
48964;BME280;34776;48.180;16.420;2022-08-03T13:01:12;99865.69;;;34.13;21.42
48964;BME280;34776;48.180;16.420;2022-08-03T13:03:42;99859.94;;;33.96;22.00
48964;BME280;34776;48.180;16.420;2022-08-03T13:06:16;99857.09;;;34.03;21.44
48964;BME280;34776;48.180;16.420;2022-08-03T13:08:43;99849.06;;;34.01;21.80
48964;BME280;34776;48.180;16.420;2022-08-03T13:11:17;99859.00;;;34.21;21.48
48964;BME280;34776;48.180;16.420;2022-08-03T13:13:43;99858.97;;;34.39;21.48
48964;BME280;34776;48.180;16.420;2022-08-03T13:16:09;99852.81;;;34.25;21.17
48964;BME280;34776;48.180;16.420;2022-08-03T13:18:34;99851.22;;;34.17;21.16
48964;BME280;34776;48.180;16.420;2022-08-03T13:20:59;99850.72;;;34.21;21.03
48964;BME280;34776;48.180;16.420;2022-08-03T13:23:26;99845.38;;;34.07;21.30
48964;BME280;34776;48.180;16.420;2022-08-03T13:25:51;99846.31;;;34.20;20.82
48964;BME280;34776;48.180;16.420;2022-08-03T13:28:16;99852.22;;;34.35;21.13
48964;BME280;34776;48.180;16.420;2022-08-03T13:30:42;99853.31;;;34.34;20.66
48964;BME280;34776;48.180;16.420;2022-08-03T13:33:07;99856.84;;;34.23;20.86